Time;durP1;ratioP1;P1;durP2;ratioP2;P2;SDS_P1;SDS_P2;PMS_P1;PMS_P2;Temp;Humidity;BMP_temperature;BMP_pressure;BME280_temperature;BME280_humidity;BME280_pressure;Samples;Min_cycle;Max_cycle;Signal;HPM_P1;HPM_P2
2022/08/30 00:01:31;;;;;;;;;;;;;;;30.04;75.54;100808.63;5083133;27;70240;-33
2022/08/30 00:04:06;;;;;;;;;;;;;;;30.03;75.74;100815.06;5090152;27;66500;-32
2022/08/30 00:06:37;;;;;;;;;;;;;;;30.03;75.34;100821.34;5082221;27;70839;-33
2022/08/30 00:09:10;;;;;;;;;;;;;;;30.03;75.36;100820.47;5083134;27;67305;-33
2022/08/30 00:11:43;;;;;;;;;;;;;;;30.05;75.81;100829.22;5085496;27;70257;-33
2022/08/30 00:14:15;;;;;;;;;;;;;;;30.07;75.19;100835.25;5080918;27;67237;-33
2022/08/30 00:16:46;;;;;;;;;;;;;;;30.11;74.93;100836.47;5087764;27;70605;-33
2022/08/30 00:19:18;;;;;;;;;;;;;;;30.13;74.22;100841.66;5080186;27;67015;-33
2022/08/30 00:21:50;;;;;;;;;;;;;;;30.14;74.58;100849.56;5080295;27;70475;-32
2022/08/30 00:24:22;;;;;;;;;;;;;;;30.17;73.99;100853.69;5080444;27;67118;-32
2022/08/30 00:26:54;;;;;;;;;;;;;;;30.19;74.64;100857.84;5087917;27;70285;-32
2022/08/30 00:29:26;;;;;;;;;;;;;;;30.20;74.14;100858.69;5062826;28;66970;-32
2022/08/30 00:32:01;;;;;;;;;;;;;;;30.24;74.63;100870.78;5088548;27;70958;-32
2022/08/30 00:34:33;;;;;;;;;;;;;;;30.26;74.52;100864.09;5090751;27;66905;-31
2022/08/30 00:37:05;;;;;;;;;;;;;;;30.30;74.50;100874.50;5080514;27;70090;-33
2022/08/30 00:39:37;;;;;;;;;;;;;;;30.34;74.39;100870.28;5060640;27;66907;-32
2022/08/30 00:42:09;;;;;;;;;;;;;;;30.39;74.72;100878.59;5081385;27;71314;-33
2022/08/30 00:44:41;;;;;;;;;;;;;;;30.42;74.25;100883.56;5081904;27;66366;-31
2022/08/30 00:47:13;;;;;;;;;;;;;;;30.50;74.46;100891.44;5081661;27;70873;-31
2022/08/30 00:49:47;;;;;;;;;;;;;;;30.51;74.21;100893.13;5084469;27;66476;-32
2022/08/30 00:52:20;;;;;;;;;;;;;;;30.55;74.20;100894.31;5082549;27;71096;-32
2022/08/30 00:54:52;;;;;;;;;;;;;;;30.59;73.43;100892.00;5081951;27;66793;-31
2022/08/30 00:57:24;;;;;;;;;;;;;;;30.62;73.43;100899.69;5070013;27;70210;-31
2022/08/30 00:59:56;;;;;;;;;;;;;;;30.64;73.03;100901.13;5070486;27;67066;-32
2022/08/30 01:02:29;;;;;;;;;;;;;;;30.68;72.21;100899.66;5094164;27;70031;-32
2022/08/30 01:05:03;;;;;;;;;;;;;;;30.70;72.65;100900.28;5084225;27;67288;-33
2022/08/30 01:07:35;;;;;;;;;;;;;;;30.72;72.65;100900.03;5084956;27;70285;-32
2022/08/30 01:10:09;;;;;;;;;;;;;;;30.73;71.94;100897.13;5084359;27;67438;-32
2022/08/30 01:12:41;;;;;;;;;;;;;;;30.79;71.49;100889.19;5083303;27;71132;-32
2022/08/30 01:15:14;;;;;;;;;;;;;;;30.81;71.11;100885.22;5088771;27;66399;-31
2022/08/30 01:17:47;;;;;;;;;;;;;;;30.85;71.14;100888.31;5062577;27;70741;-31
2022/08/30 01:20:24;;;;;;;;;;;;;;;30.87;71.29;100883.50;5087401;27;67542;-31
2022/08/30 01:22:58;;;;;;;;;;;;;;;30.94;70.78;100887.00;5089522;27;70281;-31
2022/08/30 01:25:30;;;;;;;;;;;;;;;30.97;71.21;100880.31;5093164;27;67448;-31
2022/08/30 01:28:07;;;;;;;;;;;;;;;30.97;71.48;100885.72;5091680;27;70688;-32
2022/08/30 01:30:39;;;;;;;;;;;;;;;30.97;71.49;100886.56;5091333;27;66853;-32
2022/08/30 01:33:11;;;;;;;;;;;;;;;30.98;71.21;100880.09;5088774;27;70638;-32
2022/08/30 01:35:48;;;;;;;;;;;;;;;31.00;71.62;100875.28;5081209;27;67252;-32
2022/08/30 01:38:22;;;;;;;;;;;;;;;31.01;71.33;100871.53;5067263;28;70465;-31
2022/08/30 01:40:58;;;;;;;;;;;;;;;31.04;71.08;100871.09;5070659;28;66144;-31
2022/08/30 01:43:30;;;;;;;;;;;;;;;31.04;71.29;100865.66;5063162;28;70218;-31
2022/08/30 01:46:05;;;;;;;;;;;;;;;31.04;71.34;100868.38;5072932;27;42892;-32
2022/08/30 01:48:37;;;;;;;;;;;;;;;31.09;71.30;100867.69;5072188;28;70820;-32
2022/08/30 01:51:12;;;;;;;;;;;;;;;31.11;71.04;100855.59;5069947;28;67173;-32
2022/08/30 01:53:45;;;;;;;;;;;;;;;31.20;71.48;100866.13;5069152;28;70848;-31
2022/08/30 01:56:17;;;;;;;;;;;;;;;31.27;71.51;100869.63;5061001;27;66840;-32
2022/08/30 01:58:50;;;;;;;;;;;;;;;31.30;70.84;100867.28;5065940;28;70108;-31
2022/08/30 02:01:23;;;;;;;;;;;;;;;31.35;70.86;100866.63;5071682;28;65935;-31
2022/08/30 02:03:56;;;;;;;;;;;;;;;31.39;70.50;100862.44;5073176;28;70908;-31
2022/08/30 02:06:28;;;;;;;;;;;;;;;31.43;69.78;100865.53;5068377;28;67377;-31
2022/08/30 02:09:00;;;;;;;;;;;;;;;31.44;69.72;100859.06;5063174;28;70636;-31
2022/08/30 02:11:33;;;;;;;;;;;;;;;31.47;70.32;100864.84;5054950;28;66964;-32
2022/08/30 02:14:05;;;;;;;;;;;;;;;31.51;70.02;100860.66;5068148;28;70633;-32
2022/08/30 02:16:39;;;;;;;;;;;;;;;31.55;70.26;100856.44;5072776;28;66263;-32
2022/08/30 02:19:11;;;;;;;;;;;;;;;31.59;69.55;100857.66;5067711;28;70886;-31
2022/08/30 02:21:43;;;;;;;;;;;;;;;31.62;69.71;100861.75;5061873;28;67275;-32
2022/08/30 02:24:43;;;;;;;;;;;;;;;31.69;69.23;100859.00;5046221;28;70192;-31
2022/08/30 02:27:33;;;;;;;;;;;;;;;31.70;69.04;100858.75;5063322;28;67155;-32
2022/08/30 02:30:07;;;;;;;;;;;;;;;31.71;68.44;100860.44;5068306;28;70235;-33
2022/08/30 02:32:40;;;;;;;;;;;;;;;31.72;68.29;100862.06;5058394;28;65995;-33
2022/08/30 02:35:12;;;;;;;;;;;;;;;31.73;67.95;100862.91;5066937;27;70169;-32
2022/08/30 02:37:44;;;;;;;;;;;;;;;31.75;67.39;100863.50;5079762;27;66629;-31
2022/08/30 02:40:17;;;;;;;;;;;;;;;31.77;67.45;100850.56;5083285;27;71118;-32
2022/08/30 02:42:49;;;;;;;;;;;;;;;31.76;67.84;100840.75;5084401;27;66592;-32
2022/08/30 02:45:21;;;;;;;;;;;;;;;31.74;67.85;100838.28;5083173;27;71060;-31
2022/08/30 02:47:55;;;;;;;;;;;;;;;31.73;67.73;100833.06;5081836;27;67090;-33
2022/08/30 02:50:27;;;;;;;;;;;;;;;31.70;68.29;100831.63;5089211;27;70834;-32
2022/08/30 02:52:59;;;;;;;;;;;;;;;31.68;68.52;100822.06;5092309;27;67138;-32
2022/08/30 02:55:31;;;;;;;;;;;;;;;31.68;68.58;100824.78;5084105;27;69980;-32
2022/08/30 02:58:03;;;;;;;;;;;;;;;31.66;68.45;100822.31;5048039;27;66988;-32
2022/08/30 03:00:35;;;;;;;;;;;;;;;31.66;68.71;100824.19;5086223;27;70342;-33
2022/08/30 03:03:07;;;;;;;;;;;;;;;31.66;68.95;100818.78;5086278;27;67476;-33
2022/08/30 03:05:40;;;;;;;;;;;;;;;31.66;69.03;100813.34;5086157;27;70688;-32
2022/08/30 03:08:12;;;;;;;;;;;;;;;31.65;69.06;100817.09;5056924;27;66532;-33
2022/08/30 03:10:45;;;;;;;;;;;;;;;31.67;68.52;100818.53;5086637;27;70856;-32
2022/08/30 03:13:17;;;;;;;;;;;;;;;31.68;68.93;100825.63;5078207;27;67387;-33
2022/08/30 03:15:49;;;;;;;;;;;;;;;31.69;68.58;100823.75;5082538;27;70859;-32
2022/08/30 03:18:21;;;;;;;;;;;;;;;31.70;68.83;100819.97;5068819;27;67255;-31
2022/08/30 03:20:53;;;;;;;;;;;;;;;31.70;68.70;100812.66;5066977;27;70192;-33
2022/08/30 03:23:25;;;;;;;;;;;;;;;31.72;68.42;100817.84;5084322;27;67366;-32
2022/08/30 03:25:58;;;;;;;;;;;;;;;31.73;68.69;100814.94;5092199;27;70672;-32
2022/08/30 03:28:30;;;;;;;;;;;;;;;31.74;68.57;100805.72;5087163;27;66494;-32
2022/08/30 03:31:02;;;;;;;;;;;;;;;31.75;68.50;100801.13;5088035;27;70686;-31
2022/08/30 03:33:34;;;;;;;;;;;;;;;31.76;68.61;100802.78;5082603;27;66805;-31
2022/08/30 03:36:07;;;;;;;;;;;;;;;31.77;68.14;100804.44;5083960;27;70295;-31
2022/08/30 03:38:39;;;;;;;;;;;;;;;31.82;69.01;100801.88;5084733;27;66866;-32
2022/08/30 03:41:12;;;;;;;;;;;;;;;31.85;68.45;100801.41;5087993;27;70308;-32
2022/08/30 03:43:46;;;;;;;;;;;;;;;31.87;69.00;100802.00;5084697;27;67517;-32
2022/08/30 03:46:19;;;;;;;;;;;;;;;31.93;68.18;100797.56;5038735;27;69810;-32
2022/08/30 03:48:57;;;;;;;;;;;;;;;31.97;67.00;100796.91;5063146;27;66381;-32
2022/08/30 03:51:29;;;;;;;;;;;;;;;32.04;66.21;100792.22;5085313;27;70373;-32
2022/08/30 03:54:01;;;;;;;;;;;;;;;32.12;65.30;100774.75;5082694;27;67256;-32
2022/08/30 03:56:33;;;;;;;;;;;;;;;32.17;64.74;100776.78;5055103;27;70521;-31
2022/08/30 03:59:06;;;;;;;;;;;;;;;32.21;64.81;100772.56;5076030;27;66507;-32
2022/08/30 04:01:40;;;;;;;;;;;;;;;32.28;64.11;100768.66;5056923;27;71010;-33
2022/08/30 04:04:13;;;;;;;;;;;;;;;32.34;64.08;100766.91;5049207;28;66979;-32
2022/08/30 04:06:50;;;;;;;;;;;;;;;32.37;64.17;100763.72;5053305;27;70830;-32
2022/08/30 04:09:23;;;;;;;;;;;;;;;32.41;64.12;100750.53;5076370;27;68101;-30
2022/08/30 04:11:55;;;;;;;;;;;;;;;32.46;64.30;100745.25;5084307;27;70095;-32
2022/08/30 04:14:27;;;;;;;;;;;;;;;32.52;64.43;100748.94;5068261;27;67720;-32
2022/08/30 04:16:59;;;;;;;;;;;;;;;32.58;64.28;100746.09;5092128;27;70950;-31
2022/08/30 04:19:30;;;;;;;;;;;;;;;32.65;64.17;100743.25;5081955;27;67009;-35
2022/08/30 04:22:03;;;;;;;;;;;;;;;32.69;64.36;100739.00;5083448;27;71347;-33
2022/08/30 04:24:37;;;;;;;;;;;;;;;32.74;64.32;100739.13;5082990;27;65726;-33
2022/08/30 04:27:09;;;;;;;;;;;;;;;32.77;64.29;100732.41;5079053;27;69913;-33
2022/08/30 04:29:42;;;;;;;;;;;;;;;32.80;64.23;100726.50;5075502;27;67222;-33
2022/08/30 04:32:15;;;;;;;;;;;;;;;32.81;64.12;100720.81;5085724;27;71023;-33
2022/08/30 04:34:47;;;;;;;;;;;;;;;32.84;64.03;100717.63;5017034;27;67357;-32
2022/08/30 04:37:19;;;;;;;;;;;;;;;32.86;64.13;100720.94;5082589;27;70774;-32
2022/08/30 04:39:54;;;;;;;;;;;;;;;32.88;63.56;100716.09;5081978;27;65992;-32
2022/08/30 04:42:29;;;;;;;;;;;;;;;32.90;63.61;100713.97;5076659;27;71048;-32
2022/08/30 04:45:02;;;;;;;;;;;;;;;32.92;63.70;100714.53;5064688;28;66346;-33
2022/08/30 04:47:34;;;;;;;;;;;;;;;32.93;63.77;100702.63;5082931;27;70910;-32
2022/08/30 04:50:07;;;;;;;;;;;;;;;32.94;64.21;100701.53;5083358;27;67427;-32
2022/08/30 04:52:39;;;;;;;;;;;;;;;32.97;64.13;100699.41;5081154;27;70133;-32
2022/08/30 04:55:11;;;;;;;;;;;;;;;32.99;63.90;100686.41;5081713;27;67328;-33
2022/08/30 04:57:50;;;;;;;;;;;;;;;33.02;64.14;100691.41;5078582;27;70099;-32
2022/08/30 05:00:22;;;;;;;;;;;;;;;33.03;64.17;100684.91;5084041;27;66845;-31
2022/08/30 05:02:54;;;;;;;;;;;;;;;33.05;63.82;100670.03;5084585;27;69759;-32
2022/08/30 05:05:41;;;;;;;;;;;;;;;33.07;63.87;100673.31;5082297;27;66534;-33
2022/08/30 05:08:15;;;;;;;;;;;;;;;33.10;63.71;100663.88;5083715;27;70833;-33
2022/08/30 05:10:53;;;;;;;;;;;;;;;33.11;63.34;100669.06;5081952;27;67146;-32
2022/08/30 05:13:25;;;;;;;;;;;;;;;33.12;63.45;100654.38;5082144;27;70560;-32
2022/08/30 05:16:06;;;;;;;;;;;;;;;33.13;63.46;100658.78;5081258;27;67624;-32
2022/08/30 05:18:38;;;;;;;;;;;;;;;33.16;63.38;100654.75;5079175;27;70163;-32
2022/08/30 05:21:12;;;;;;;;;;;;;;;33.17;63.41;100653.66;5085245;27;67130;-32
2022/08/30 05:23:44;;;;;;;;;;;;;;;33.15;63.37;100655.78;5080454;27;70957;-33
2022/08/30 05:26:19;;;;;;;;;;;;;;;33.07;62.17;100642.59;5082722;27;67264;-33
2022/08/30 05:28:50;;;;;;;;;;;;;;;32.97;60.65;100629.59;5053147;28;70428;-35
2022/08/30 05:31:24;;;;;;;;;;;;;;;32.93;60.45;100626.53;5064565;28;67430;-31
2022/08/30 05:33:56;;;;;;;;;;;;;;;32.84;59.17;100627.97;5080218;27;71096;-33
2022/08/30 05:36:29;;;;;;;;;;;;;;;32.81;58.63;100624.91;5080373;27;67188;-32
2022/08/30 05:39:01;;;;;;;;;;;;;;;32.78;57.43;100625.41;5079460;27;71112;-32
2022/08/30 05:41:35;;;;;;;;;;;;;;;32.73;56.51;100609.81;5066602;28;66386;-32
2022/08/30 05:44:08;;;;;;;;;;;;;;;32.67;55.27;100610.75;5083866;27;70707;-32
2022/08/30 05:46:44;;;;;;;;;;;;;;;32.65;55.40;100605.59;5079894;27;66437;-31
2022/08/30 05:49:16;;;;;;;;;;;;;;;32.59;53.99;100606.53;5085202;27;70981;-32
2022/08/30 05:51:48;;;;;;;;;;;;;;;32.51;53.82;100606.06;5087495;27;67424;-32
2022/08/30 05:54:20;;;;;;;;;;;;;;;32.53;53.68;100606.66;5073522;27;70172;-32
2022/08/30 05:56:52;;;;;;;;;;;;;;;32.48;52.83;100594.63;5088803;27;66523;-32
2022/08/30 05:59:24;;;;;;;;;;;;;;;32.46;52.39;100602.19;5092036;27;70284;-32
2022/08/30 06:01:57;;;;;;;;;;;;;;;32.42;51.98;100592.81;5087627;27;67344;-33
2022/08/30 06:04:29;;;;;;;;;;;;;;;32.41;52.43;100591.19;5089305;27;70850;-32
2022/08/30 06:07:01;;;;;;;;;;;;;;;32.39;51.29;100585.16;5089870;27;67150;-32
2022/08/30 06:09:33;;;;;;;;;;;;;;;32.39;50.37;100576.19;5088692;27;68621;-33
2022/08/30 06:12:05;;;;;;;;;;;;;;;32.41;50.32;100571.34;5077534;27;67138;-32
2022/08/30 06:14:38;;;;;;;;;;;;;;;32.44;51.71;100566.28;5086816;27;71056;-32
2022/08/30 06:17:10;;;;;;;;;;;;;;;32.24;51.64;100533.25;5088013;27;67210;-34
2022/08/30 06:19:42;;;;;;;;;;;;;;;32.46;50.60;100558.75;5052073;28;70490;-32
2022/08/30 06:22:14;;;;;;;;;;;;;;;32.52;50.30;100543.41;5088769;27;67192;-31
2022/08/30 06:24:46;;;;;;;;;;;;;;;32.53;49.76;100544.22;5087447;27;70853;-32
2022/08/30 06:27:27;;;;;;;;;;;;;;;32.53;49.20;100542.31;5087089;27;67363;-32
2022/08/30 06:29:59;;;;;;;;;;;;;;;32.54;48.95;100538.56;5046386;28;70893;-32
2022/08/30 06:32:31;;;;;;;;;;;;;;;32.52;48.78;100540.69;5091816;27;66878;-33
2022/08/30 06:35:04;;;;;;;;;;;;;;;32.52;48.29;100529.81;5091399;27;70261;-33
2022/08/30 06:37:36;;;;;;;;;;;;;;;32.49;48.01;100522.97;5088474;27;66483;-32
2022/08/30 06:40:09;;;;;;;;;;;;;;;32.56;47.35;100509.25;5091522;27;70190;-33
2022/08/30 06:42:40;;;;;;;;;;;;;;;32.55;47.38;100506.78;5090409;27;67096;-33
2022/08/30 06:45:15;;;;;;;;;;;;;;;32.56;46.57;100505.72;5081157;27;70139;-32
2022/08/30 06:47:47;;;;;;;;;;;;;;;32.56;46.98;100508.44;5085106;27;67598;-33
2022/08/30 06:50:19;;;;;;;;;;;;;;;32.64;46.77;100516.19;5083284;27;70477;-32
2022/08/30 06:52:51;;;;;;;;;;;;;;;32.68;46.70;100525.50;5087313;27;66182;-32
2022/08/30 06:55:26;;;;;;;;;;;;;;;32.67;46.55;100510.28;5082321;27;70890;-33
2022/08/30 06:57:59;;;;;;;;;;;;;;;32.72;46.41;100489.47;5082006;27;66728;-32
2022/08/30 07:00:31;;;;;;;;;;;;;;;32.73;46.66;100487.59;5079743;27;70120;-32
2022/08/30 07:03:05;;;;;;;;;;;;;;;32.77;46.48;100486.03;5082796;27;67093;-32
2022/08/30 07:05:37;;;;;;;;;;;;;;;32.74;45.64;100481.09;5062313;27;71420;-33
2022/08/30 07:08:09;;;;;;;;;;;;;;;32.81;46.05;100472.78;5089935;27;66014;-32
2022/08/30 07:10:41;;;;;;;;;;;;;;;32.82;45.11;100483.44;5091087;27;70897;-32
2022/08/30 07:13:13;;;;;;;;;;;;;;;32.86;45.73;100511.75;5083226;27;67336;-32
2022/08/30 07:15:45;;;;;;;;;;;;;;;32.89;45.46;100529.44;5085161;27;71171;-32
2022/08/30 07:21:09;;;;;;;;;;;;;;;32.85;45.37;100558.19;5086501;27;71039;-33
2022/08/30 07:23:42;;;;;;;;;;;;;;;32.79;44.74;100589.84;5066602;28;66515;-32
2022/08/30 07:26:15;;;;;;;;;;;;;;;32.81;44.93;100582.28;5087176;27;70165;-31
2022/08/30 07:28:47;;;;;;;;;;;;;;;32.80;46.33;100583.34;5070047;27;67093;-31
2022/08/30 07:31:25;;;;;;;;;;;;;;;32.82;46.45;100577.66;5090440;27;70261;-31
2022/08/30 07:33:57;;;;;;;;;;;;;;;32.85;45.82;100572.59;5088374;27;66611;-32
2022/08/30 07:36:29;;;;;;;;;;;;;;;32.84;45.52;100548.38;5080979;27;71020;-31
2022/08/30 07:39:02;;;;;;;;;;;;;;;32.78;45.44;100528.44;5084977;27;67263;-31
2022/08/30 07:41:39;;;;;;;;;;;;;;;32.82;45.59;100539.63;5078604;27;70658;-31
2022/08/30 07:44:12;;;;;;;;;;;;;;;32.79;45.27;100529.25;5080011;27;66368;-32
2022/08/30 07:46:44;;;;;;;;;;;;;;;32.75;44.91;100534.34;5085787;27;70376;-32
2022/08/30 07:49:16;;;;;;;;;;;;;;;32.71;44.54;100538.63;5080782;27;67354;-31
2022/08/30 07:51:48;;;;;;;;;;;;;;;32.73;44.22;100539.19;5083226;27;70632;-31
2022/08/30 07:54:20;;;;;;;;;;;;;;;32.71;44.81;100533.19;5084858;27;66483;-33
2022/08/30 07:56:54;;;;;;;;;;;;;;;32.70;45.28;100553.25;5069919;27;70998;-32
2022/08/30 07:59:26;;;;;;;;;;;;;;;32.66;45.10;100579.25;5081694;27;67145;-32
2022/08/30 08:02:03;;;;;;;;;;;;;;;32.65;45.69;100574.88;5067598;27;70888;-32
2022/08/30 08:04:35;;;;;;;;;;;;;;;32.60;45.41;100591.09;5090302;27;65470;-32
2022/08/30 08:07:07;;;;;;;;;;;;;;;32.55;45.72;100615.41;5088031;27;70269;-32
2022/08/30 08:09:39;;;;;;;;;;;;;;;32.50;45.76;100629.69;5087591;27;67100;-32
2022/08/30 08:12:11;;;;;;;;;;;;;;;32.41;46.14;100604.75;5074180;27;71021;-33
2022/08/30 08:14:43;;;;;;;;;;;;;;;32.33;45.76;100577.97;5086285;27;66197;-31
2022/08/30 08:17:15;;;;;;;;;;;;;;;32.36;56.04;100576.66;5090608;27;70786;-32
2022/08/30 08:19:47;;;;;;;;;;;;;;;32.38;57.49;100572.66;5086903;27;67217;-32
2022/08/30 08:22:20;;;;;;;;;;;;;;;32.54;57.94;100565.72;5082648;27;70197;-32
2022/08/30 08:24:51;;;;;;;;;;;;;;;32.50;63.19;100559.09;5082939;27;67165;-33
2022/08/30 08:27:23;;;;;;;;;;;;;;;32.51;62.40;100519.19;5089629;27;70316;-32
2022/08/30 08:29:55;;;;;;;;;;;;;;;32.55;62.50;100504.06;5069638;28;66379;-32
2022/08/30 08:32:27;;;;;;;;;;;;;;;32.62;63.09;100504.75;5081592;27;70025;-32
2022/08/30 08:34:59;;;;;;;;;;;;;;;32.68;63.08;100501.06;5050755;27;66763;-33
2022/08/30 08:37:31;;;;;;;;;;;;;;;32.81;63.40;100500.78;5087051;27;70771;-35
2022/08/30 08:40:04;;;;;;;;;;;;;;;32.79;63.96;100502.94;5083392;27;67327;-33
2022/08/30 08:42:36;;;;;;;;;;;;;;;32.82;63.74;100491.59;5084043;27;70584;-33
2022/08/30 08:45:13;;;;;;;;;;;;;;;32.90;63.94;100483.03;5054526;28;67176;-31
2022/08/30 08:48:08;;;;;;;;;;;;;;;32.73;65.10;100471.28;5083243;27;70938;-33
2022/08/30 08:53:33;;;;;;;;;;;;;;;32.62;65.93;100458.59;5080640;27;67518;-34
2022/08/30 08:53:36;;;;;;;;;;;;;;;32.48;66.43;100455.31;5079276;27;70775;-33
2022/08/30 08:56:18;;;;;;;;;;;;;;;32.43;66.74;100456.03;5078660;27;67429;-33
2022/08/30 08:58:52;;;;;;;;;;;;;;;32.39;66.76;100454.84;5079589;27;70865;-32
2022/08/30 09:01:27;;;;;;;;;;;;;;;32.33;66.88;100466.69;5079142;27;67312;-33
2022/08/30 09:04:02;;;;;;;;;;;;;;;32.30;67.50;100478.03;5054390;28;69495;-34
2022/08/30 09:06:42;;;;;;;;;;;;;;;32.26;68.06;100477.69;5079380;27;66048;-33
2022/08/30 09:09:17;;;;;;;;;;;;;;;32.25;68.11;100464.34;5077007;27;70090;-31
2022/08/30 09:11:49;;;;;;;;;;;;;;;32.22;68.22;100475.69;5061138;27;66484;-33
2022/08/30 09:14:24;;;;;;;;;;;;;;;32.24;68.74;100473.56;5079766;27;70124;-33
2022/08/30 09:17:05;;;;;;;;;;;;;;;32.22;68.74;100464.81;5059820;28;67489;-33
2022/08/30 09:19:39;;;;;;;;;;;;;;;32.20;68.40;100473.19;5079133;28;70854;-33
2022/08/30 09:22:25;;;;;;;;;;;;;;;32.16;68.68;100466.59;5081213;27;67131;-33
2022/08/30 09:25:06;;;;;;;;;;;;;;;32.20;68.04;100472.38;5081361;27;70604;-32
2022/08/30 09:27:42;;;;;;;;;;;;;;;32.28;67.68;100467.38;5081182;27;67072;-34
2022/08/30 09:30:18;;;;;;;;;;;;;;;32.36;66.97;100474.34;5063050;28;71028;-33
2022/08/30 09:32:57;;;;;;;;;;;;;;;32.42;66.90;100475.28;5069515;28;67251;-33
2022/08/30 09:35:41;;;;;;;;;;;;;;;32.51;66.30;100475.75;5082250;27;70560;-32
2022/08/30 09:38:17;;;;;;;;;;;;;;;32.57;65.92;100469.34;5085365;27;66639;-33
2022/08/30 09:40:51;;;;;;;;;;;;;;;32.63;65.37;100471.13;5089428;27;70868;-33
2022/08/30 09:43:27;;;;;;;;;;;;;;;32.69;65.17;100475.56;5083709;27;66225;-33
2022/08/30 09:45:59;;;;;;;;;;;;;;;32.74;64.68;100466.69;5071602;27;70685;-33
2022/08/30 09:48:32;;;;;;;;;;;;;;;32.77;64.56;100469.75;5088481;27;67050;-33
2022/08/30 09:51:11;;;;;;;;;;;;;;;32.81;64.50;100473.63;5090555;27;70792;-34
2022/08/30 09:54:02;;;;;;;;;;;;;;;32.85;64.19;100463.94;5093283;27;67169;-33
2022/08/30 09:56:56;;;;;;;;;;;;;;;32.88;64.17;100443.59;5085310;27;70738;-32
2022/08/30 09:59:28;;;;;;;;;;;;;;;32.90;63.87;100426.00;5082422;27;67166;-32
2022/08/30 10:02:11;;;;;;;;;;;;;;;32.91;63.85;100414.03;5069999;28;70058;-32
2022/08/30 10:04:55;;;;;;;;;;;;;;;32.93;63.65;100409.19;5067793;27;66997;-33
2022/08/30 10:07:33;;;;;;;;;;;;;;;32.97;63.95;100422.28;5087945;27;70979;-33
2022/08/30 10:10:14;;;;;;;;;;;;;;;32.97;63.91;100430.44;5066535;27;67321;-34
2022/08/30 10:12:58;;;;;;;;;;;;;;;32.98;64.02;100441.03;5088025;27;70635;-32
2022/08/30 10:15:50;;;;;;;;;;;;;;;32.98;63.96;100460.06;5073213;27;67129;-32
2022/08/30 10:18:31;;;;;;;;;;;;;;;32.97;63.85;100471.19;5082399;27;70611;-34
2022/08/30 10:21:03;;;;;;;;;;;;;;;32.97;64.75;100487.50;5065375;28;67213;-33
2022/08/30 10:23:42;;;;;;;;;;;;;;;32.73;66.22;100476.72;5083005;27;70839;-34
2022/08/30 10:26:14;;;;;;;;;;;;;;;32.55;67.87;100479.63;5082640;27;67172;-32
2022/08/30 10:29:10;;;;;;;;;;;;;;;32.41;69.50;100482.59;5082692;27;69782;-32
2022/08/30 10:31:49;;;;;;;;;;;;;;;32.33;70.58;100482.97;5081197;27;67370;-33
2022/08/30 10:34:34;;;;;;;;;;;;;;;32.26;70.80;100493.13;5064648;27;70626;-33
2022/08/30 10:37:29;;;;;;;;;;;;;;;32.20;71.34;100494.06;5082461;27;66987;-34
2022/08/30 10:43:21;;;;;;;;;;;;;;;32.09;72.65;100509.31;5079472;27;66338;-32
2022/08/30 10:45:59;;;;;;;;;;;;;;;32.03;74.03;100521.94;5062296;28;71039;-34
2022/08/30 10:48:39;;;;;;;;;;;;;;;32.04;73.78;100525.50;5062808;28;66970;-33
2022/08/30 10:51:22;;;;;;;;;;;;;;;32.04;73.81;100544.50;5079642;27;70788;-33
2022/08/30 10:53:56;;;;;;;;;;;;;;;32.03;73.84;100553.66;5060698;28;67355;-33
2022/08/30 10:56:29;;;;;;;;;;;;;;;32.02;73.91;100557.47;5077720;27;69744;-34
2022/08/30 10:59:03;;;;;;;;;;;;;;;32.01;74.00;100578.34;5078201;27;66241;-33
2022/08/30 11:01:41;;;;;;;;;;;;;;;32.03;74.00;100584.34;5082522;27;69742;-32
2022/08/30 11:04:19;;;;;;;;;;;;;;;32.01;73.93;100586.47;5078802;27;66691;-35
2022/08/30 11:07:10;;;;;;;;;;;;;;;32.02;74.23;100595.44;5060746;27;70855;-34
2022/08/30 11:09:49;;;;;;;;;;;;;;;32.02;74.15;100596.25;5079756;27;67424;-32
2022/08/30 11:12:20;;;;;;;;;;;;;;;32.04;74.42;100594.16;5078950;27;71267;-33
2022/08/30 11:14:56;;;;;;;;;;;;;;;32.03;74.06;100586.22;5081337;27;66262;-34
2022/08/30 11:17:34;;;;;;;;;;;;;;;32.03;74.38;100584.34;5081018;27;69888;-33
2022/08/30 11:20:20;;;;;;;;;;;;;;;32.02;74.35;100579.97;5063397;27;67184;-34
2022/08/30 11:23:10;;;;;;;;;;;;;;;32.00;74.19;100560.38;5082741;27;70189;-34
2022/08/30 11:25:52;;;;;;;;;;;;;;;31.99;73.65;100556.03;5080645;27;66309;-34
2022/08/30 11:28:36;;;;;;;;;;;;;;;31.96;73.96;100540.25;5082648;27;70840;-34
2022/08/30 11:31:28;;;;;;;;;;;;;;;31.98;73.87;100524.56;5086476;27;67250;-34
2022/08/30 11:34:00;;;;;;;;;;;;;;;31.95;73.81;100519.56;5079003;27;70740;-33
2022/08/30 11:36:37;;;;;;;;;;;;;;;31.96;73.79;100531.28;5044091;28;67217;-33
2022/08/30 11:39:33;;;;;;;;;;;;;;;31.95;73.56;100538.56;5082626;27;71384;-33
2022/08/30 11:42:23;;;;;;;;;;;;;;;31.94;73.82;100555.09;5079193;27;66904;-35
2022/08/30 11:45:17;;;;;;;;;;;;;;;31.91;73.79;100561.81;5080950;27;69723;-33
2022/08/30 11:47:51;;;;;;;;;;;;;;;31.93;73.65;100559.69;5075387;28;66775;-34
2022/08/30 11:50:32;;;;;;;;;;;;;;;31.92;73.75;100563.47;5079343;27;70899;-35
2022/08/30 11:53:22;;;;;;;;;;;;;;;31.90;73.70;100567.44;5080891;27;67071;-35
2022/08/30 11:55:54;;;;;;;;;;;;;;;31.90;73.56;100575.56;5079279;27;70873;-33
2022/08/30 11:58:46;;;;;;;;;;;;;;;31.88;73.50;100581.25;5078823;27;67844;-34
2022/08/30 12:01:20;;;;;;;;;;;;;;;31.85;73.72;100583.59;5080605;27;69822;-33
2022/08/30 12:04:24;;;;;;;;;;;;;;;31.82;73.85;100579.47;5080968;27;66217;-34
2022/08/30 12:07:04;;;;;;;;;;;;;;;31.82;73.54;100585.72;5081831;27;70440;-33
2022/08/30 12:09:37;;;;;;;;;;;;;;;31.81;73.86;100599.50;5081401;27;66778;-34
2022/08/30 12:12:11;;;;;;;;;;;;;;;31.80;73.52;100603.28;5078952;27;70770;-34
2022/08/30 12:14:53;;;;;;;;;;;;;;;31.79;73.58;100601.66;5087864;27;67188;-33
2022/08/30 12:20:18;;;;;;;;;;;;;;;31.75;73.63;100600.44;5082816;27;67045;-33
2022/08/30 12:22:51;;;;;;;;;;;;;;;31.76;73.87;100612.94;5079597;27;71061;-33
2022/08/30 12:25:28;;;;;;;;;;;;;;;31.75;73.45;100627.56;5069402;27;66599;-33
2022/08/30 12:28:20;;;;;;;;;;;;;;;31.74;73.73;100631.34;5066837;28;70718;-34
2022/08/30 12:30:52;;;;;;;;;;;;;;;31.74;74.00;100634.06;5078731;27;66538;-34
2022/08/30 12:33:26;;;;;;;;;;;;;;;31.76;73.96;100629.19;5058478;28;70974;-33
2022/08/30 12:36:05;;;;;;;;;;;;;;;31.74;74.11;100631.34;5057973;28;67411;-33
2022/08/30 12:38:39;;;;;;;;;;;;;;;31.75;74.03;100630.28;5077997;27;71306;-34
2022/08/30 12:41:18;;;;;;;;;;;;;;;31.74;74.03;100632.16;5079713;27;66343;-33
2022/08/30 12:43:51;;;;;;;;;;;;;;;31.68;74.01;100632.25;5065769;27;70700;-34
2022/08/30 12:46:23;;;;;;;;;;;;;;;31.58;73.99;100638.25;5045494;27;67258;-35
2022/08/30 12:48:55;;;;;;;;;;;;;;;31.56;74.41;100643.06;5081957;27;72178;-34
2022/08/30 12:51:28;;;;;;;;;;;;;;;31.57;74.55;100648.25;5081703;27;65887;-33
2022/08/30 12:54:05;;;;;;;;;;;;;;;31.60;74.88;100650.50;5065097;27;70983;-33
2022/08/30 12:56:46;;;;;;;;;;;;;;;31.64;75.64;100648.16;5070014;27;66943;-32
2022/08/30 12:59:57;;;;;;;;;;;;;;;31.69;76.17;100636.63;5081131;27;70882;-36
2022/08/30 13:02:46;;;;;;;;;;;;;;;31.60;74.59;100653.22;5009034;28;66732;-35
2022/08/30 13:05:26;;;;;;;;;;;;;;;31.48;73.81;100665.06;4995857;28;70549;-33
2022/08/30 13:08:09;;;;;;;;;;;;;;;31.37;72.41;100663.97;5066520;27;67091;-36
2022/08/30 13:10:53;;;;;;;;;;;;;;;31.27;71.02;100680.75;5084798;27;70787;-34
2022/08/30 13:13:32;;;;;;;;;;;;;;;31.16;69.57;100679.63;5051953;28;66440;-34
2022/08/30 13:16:17;;;;;;;;;;;;;;;31.06;68.91;100684.75;5073811;27;70120;-32
2022/08/30 13:19:12;;;;;;;;;;;;;;;31.00;67.84;100690.25;5086935;27;66080;-33
2022/08/30 13:21:51;;;;;;;;;;;;;;;30.91;66.40;100709.50;5079768;27;70829;-33
2022/08/30 13:24:24;;;;;;;;;;;;;;;30.86;65.38;100713.94;5085917;27;65857;-32
2022/08/30 13:27:00;;;;;;;;;;;;;;;30.83;64.49;100726.03;5085855;27;69434;-32